createdAt,value
2023-03-02T00:01:46.794Z,0.62
2023-03-02T00:04:20.788Z,0.63
2023-03-02T00:06:49.660Z,0.59
2023-03-02T00:09:18.334Z,0.56
2023-03-02T00:11:47.829Z,0.59
2023-03-02T00:14:15.559Z,0.58
2023-03-02T00:16:43.350Z,0.56
2023-03-02T00:19:11.065Z,0.54
2023-03-02T00:21:38.824Z,0.51
2023-03-02T00:24:07.456Z,0.48
2023-03-02T00:26:35.442Z,0.41
2023-03-02T00:29:05.666Z,0.47
2023-03-02T00:31:33.504Z,0.45
2023-03-02T00:34:01.380Z,0.45
2023-03-02T00:36:29.089Z,0.46
2023-03-02T00:38:57.455Z,0.45
2023-03-02T00:41:25.229Z,0.35
2023-03-02T00:43:53.000Z,0.35
2023-03-02T00:46:24.876Z,0.35
2023-03-02T00:48:53.388Z,0.33
2023-03-02T00:51:21.462Z,0.35
2023-03-02T00:53:49.249Z,0.30
2023-03-02T00:56:16.991Z,0.30
2023-03-02T00:58:44.674Z,0.33
2023-03-02T01:01:15.896Z,0.27
2023-03-02T01:03:48.197Z,0.28
2023-03-02T01:06:17.332Z,0.19
2023-03-02T01:08:45.729Z,0.16
2023-03-02T01:11:15.065Z,0.22
2023-03-02T01:13:42.971Z,0.18
2023-03-02T01:16:11.837Z,0.19
2023-03-02T01:18:39.866Z,0.14
2023-03-02T01:21:12.011Z,0.18
2023-03-02T01:23:39.784Z,0.19
2023-03-02T01:26:08.213Z,0.13
2023-03-02T01:28:35.964Z,0.14
2023-03-02T01:31:04.670Z,0.12
2023-03-02T01:33:32.819Z,0.07
2023-03-02T01:36:00.887Z,0.11
2023-03-02T01:38:30.143Z,0.13
2023-03-02T01:40:57.972Z,0.11
2023-03-02T01:43:25.774Z,0.05
2023-03-02T01:45:58.170Z,0.08
2023-03-02T01:48:30.573Z,0.07
2023-03-02T01:50:59.435Z,0.07
2023-03-02T01:53:32.268Z,0.06
2023-03-02T01:56:01.388Z,0.00
2023-03-02T01:58:32.759Z,0.08
2023-03-02T02:01:01.673Z,0.05
2023-03-02T02:03:31.771Z,0.02
2023-03-02T02:06:10.434Z,-0.03
2023-03-02T02:08:40.119Z,-0.05
2023-03-02T02:11:08.359Z,0.04
2023-03-02T02:13:36.324Z,0.01
2023-03-02T02:16:04.922Z,-0.08
2023-03-02T02:18:32.718Z,-0.12
2023-03-02T02:21:00.588Z,-0.10
2023-03-02T02:23:32.745Z,-0.15
2023-03-02T02:26:08.693Z,-0.10
2023-03-02T02:28:41.821Z,-0.12
2023-03-02T02:31:15.618Z,-0.14
2023-03-02T02:33:46.879Z,-0.12
2023-03-02T02:36:19.633Z,-0.10
2023-03-02T02:38:51.040Z,-0.07
2023-03-02T02:41:22.913Z,-0.11
2023-03-02T02:43:51.446Z,-0.11
2023-03-02T02:46:19.543Z,-0.05
2023-03-02T02:48:47.388Z,-0.05
2023-03-02T02:51:30.598Z,-0.12
2023-03-02T02:54:00.588Z,-0.10
2023-03-02T02:56:34.582Z,-0.07
2023-03-02T02:59:07.982Z,-0.07
2023-03-02T03:01:37.505Z,-0.12
2023-03-02T03:04:07.479Z,-0.09
2023-03-02T03:06:42.467Z,-0.06
2023-03-02T03:09:11.407Z,-0.07
2023-03-02T03:11:44.449Z,-0.05
2023-03-02T03:14:15.342Z,0.05
2023-03-02T03:16:45.818Z,-0.04
2023-03-02T03:19:19.239Z,-0.07
2023-03-02T03:21:50.519Z,0.02
2023-03-02T03:24:18.820Z,-0.10
2023-03-02T03:26:47.999Z,-0.10
2023-03-02T03:29:18.131Z,-0.12
2023-03-02T03:31:45.883Z,-0.09
2023-03-02T03:34:13.734Z,-0.09
2023-03-02T03:36:43.259Z,-0.15
2023-03-02T03:39:12.676Z,-0.13
2023-03-02T03:41:40.899Z,-0.07
2023-03-02T03:44:10.874Z,-0.10
2023-03-02T03:46:38.994Z,-0.12
2023-03-02T03:49:07.099Z,-0.09
2023-03-02T03:51:35.301Z,-0.11
2023-03-02T03:54:04.064Z,-0.13
2023-03-02T03:56:34.640Z,-0.15
2023-03-02T03:59:08.611Z,-0.08
2023-03-02T04:01:40.120Z,-0.05
2023-03-02T04:04:10.354Z,-0.12
2023-03-02T04:06:38.574Z,-0.04
2023-03-02T04:09:07.052Z,-0.11
2023-03-02T04:11:36.718Z,-0.13
2023-03-02T04:14:05.493Z,-0.15
2023-03-02T04:16:34.038Z,-0.19
2023-03-02T04:19:04.725Z,-0.21
2023-03-02T04:21:32.482Z,-0.20
2023-03-02T04:24:00.167Z,-0.16
2023-03-02T04:26:27.968Z,-0.22
2023-03-02T04:28:55.768Z,-0.22
2023-03-02T04:31:23.650Z,-0.25
2023-03-02T04:33:51.469Z,-0.25
2023-03-02T04:36:20.725Z,-0.22
2023-03-02T04:38:48.872Z,-0.25
2023-03-02T04:41:17.388Z,-0.23
2023-03-02T04:43:45.172Z,-0.31
2023-03-02T04:46:15.849Z,-0.25
2023-03-02T04:48:43.610Z,-0.29
2023-03-02T04:51:18.280Z,-0.26
2023-03-02T04:53:47.414Z,-0.26
2023-03-02T04:56:15.123Z,-0.25
2023-03-02T04:58:42.889Z,-0.18
2023-03-02T05:01:11.274Z,-0.21
2023-03-02T05:03:39.170Z,-0.25
2023-03-02T05:06:07.424Z,-0.26
2023-03-02T05:08:35.807Z,-0.28
2023-03-02T05:11:06.385Z,-0.26
2023-03-02T05:13:34.647Z,-0.28
2023-03-02T05:16:02.706Z,-0.32
2023-03-02T05:18:31.202Z,-0.35
2023-03-02T05:20:59.069Z,-0.37
2023-03-02T05:23:28.601Z,-0.36
2023-03-02T05:25:57.661Z,-0.39
2023-03-02T05:28:27.416Z,-0.45
2023-03-02T05:30:55.484Z,-0.43
2023-03-02T05:33:23.516Z,-0.43
2023-03-02T05:35:51.317Z,-0.45
2023-03-02T05:38:19.147Z,-0.45
2023-03-02T05:40:47.364Z,-0.52
2023-03-02T05:43:18.889Z,-0.52
2023-03-02T05:45:48.459Z,-0.56
2023-03-02T05:48:16.786Z,-0.53
2023-03-02T05:50:44.824Z,-0.54
2023-03-02T05:53:12.625Z,-0.55
2023-03-02T05:55:40.387Z,-0.57
2023-03-02T05:58:09.752Z,-0.50
2023-03-02T06:00:37.508Z,-0.56
2023-03-02T06:03:06.772Z,-0.59
2023-03-02T06:05:35.198Z,-0.61
2023-03-02T06:08:03.291Z,-0.57
2023-03-02T06:10:31.247Z,-0.55
2023-03-02T06:12:59.033Z,-0.61
2023-03-02T06:15:29.788Z,-0.60
2023-03-02T06:17:57.667Z,-0.59
2023-03-02T06:20:26.965Z,-0.66
2023-03-02T06:22:54.768Z,-0.61
2023-03-02T06:25:24.792Z,-0.60
2023-03-02T06:27:53.852Z,-0.63
2023-03-02T06:30:24.746Z,-0.57
2023-03-02T06:32:52.943Z,-0.63
2023-03-02T06:35:21.243Z,-0.68
2023-03-02T06:37:50.673Z,-0.66
2023-03-02T06:40:18.869Z,-0.69
2023-03-02T06:42:46.661Z,-0.70
2023-03-02T06:45:14.588Z,-0.71
2023-03-02T06:47:42.531Z,-0.67
2023-03-02T06:50:11.946Z,-0.73
2023-03-02T06:52:39.919Z,-0.74
2023-03-02T06:55:09.992Z,-0.68
2023-03-02T06:57:37.805Z,-0.71
2023-03-02T07:00:09.984Z,-0.71
2023-03-02T07:02:38.401Z,-0.66
2023-03-02T07:05:07.756Z,-0.69
2023-03-02T07:07:35.539Z,-0.57
2023-03-02T07:10:03.429Z,-0.58
2023-03-02T07:12:32.861Z,-0.62
2023-03-02T07:15:00.608Z,-0.65
2023-03-02T07:17:28.342Z,-0.60
2023-03-02T07:19:56.109Z,-0.57
2023-03-02T07:22:23.846Z,-0.49
2023-03-02T07:24:51.580Z,-0.49
2023-03-02T07:27:19.351Z,-0.45
2023-03-02T07:29:48.459Z,-0.45
2023-03-02T07:32:16.226Z,-0.45
2023-03-02T07:34:44.006Z,-0.49
2023-03-02T07:37:11.755Z,-0.44
2023-03-02T07:39:39.504Z,-0.43
2023-03-02T07:42:08.890Z,-0.43
2023-03-02T07:44:36.704Z,-0.31
2023-03-02T07:47:06.376Z,-0.29
2023-03-02T07:49:35.349Z,-0.23
2023-03-02T07:52:03.527Z,-0.18
2023-03-02T07:54:31.513Z,-0.09
2023-03-02T07:56:59.630Z,-0.05
2023-03-02T07:59:30.220Z,-0.02
2023-03-02T08:01:58.644Z,0.05
2023-03-02T08:04:28.066Z,0.17
2023-03-02T08:06:55.835Z,0.20
2023-03-02T08:09:23.651Z,0.29
2023-03-02T08:11:51.429Z,0.36
2023-03-02T08:14:19.224Z,0.35
2023-03-02T08:16:47.034Z,0.44
2023-03-02T08:19:14.844Z,0.47
2023-03-02T08:21:44.189Z,0.54
2023-03-02T08:24:12.515Z,0.63
2023-03-02T08:26:40.698Z,0.76
2023-03-02T08:29:08.609Z,0.79
2023-03-02T08:31:36.717Z,0.92
2023-03-02T08:34:04.918Z,1.04
2023-03-02T08:36:33.079Z,1.14
2023-03-02T08:39:02.450Z,1.23
2023-03-02T08:41:30.802Z,1.41
2023-03-02T08:43:58.917Z,1.49
2023-03-02T08:46:26.722Z,1.51
2023-03-02T08:48:54.720Z,1.60
2023-03-02T08:51:24.626Z,1.72
2023-03-02T08:53:55.182Z,1.76
2023-03-02T08:56:26.051Z,1.81
2023-03-02T08:58:55.406Z,1.86
2023-03-02T09:01:25.496Z,1.90
2023-03-02T09:03:53.692Z,1.99
2023-03-02T09:06:21.665Z,2.13
2023-03-02T09:08:49.937Z,2.24
2023-03-02T09:11:18.108Z,2.20
2023-03-02T09:13:47.242Z,2.32
2023-03-02T09:16:15.505Z,2.37
2023-03-02T09:18:43.344Z,2.60
2023-03-02T09:21:11.129Z,2.59
2023-03-02T09:23:38.953Z,2.74
2023-03-02T09:26:06.948Z,2.86
2023-03-02T09:28:36.050Z,2.98
2023-03-02T09:31:08.006Z,3.05
2023-03-02T09:33:36.017Z,3.10
2023-03-02T09:36:07.550Z,3.15
2023-03-02T09:38:35.322Z,3.28
2023-03-02T09:41:23.936Z,3.40
2023-03-02T09:44:01.698Z,3.52
2023-03-02T09:46:35.641Z,3.65
2023-03-02T09:49:20.544Z,3.62
2023-03-02T09:51:59.715Z,3.73
2023-03-02T09:54:27.683Z,3.82
2023-03-02T09:56:57.894Z,3.88
2023-03-02T09:59:30.392Z,3.97
2023-03-02T10:02:06.266Z,4.07
2023-03-02T10:04:39.552Z,4.26
2023-03-02T10:07:15.191Z,4.37
2023-03-02T10:09:44.199Z,4.46
2023-03-02T10:12:36.915Z,4.54
2023-03-02T10:15:11.673Z,4.52
2023-03-02T10:17:54.311Z,4.61
2023-03-02T10:20:34.173Z,4.64
2023-03-02T10:23:11.684Z,4.73
2023-03-02T10:25:48.696Z,4.79
2023-03-02T10:28:20.595Z,4.93
2023-03-02T10:30:55.274Z,4.93
2023-03-02T10:33:24.904Z,5.11
2023-03-02T10:35:54.472Z,5.13
2023-03-02T10:38:24.436Z,5.23
2023-03-02T10:40:59.974Z,5.34
2023-03-02T10:43:32.750Z,5.42
2023-03-02T10:46:02.550Z,5.45
2023-03-02T10:48:31.936Z,5.54
2023-03-02T10:51:00.663Z,5.66
2023-03-02T10:53:29.126Z,5.56
2023-03-02T10:55:57.018Z,5.58
2023-03-02T10:58:30.381Z,5.71
2023-03-02T11:01:00.273Z,5.74
2023-03-02T11:03:28.581Z,5.75
2023-03-02T11:06:00.411Z,5.67
2023-03-02T11:08:29.357Z,5.80
2023-03-02T11:11:01.224Z,5.98
2023-03-02T11:13:32.298Z,5.99
2023-03-02T11:16:01.730Z,6.08
2023-03-02T11:18:34.089Z,6.23
2023-03-02T11:21:06.832Z,6.21
2023-03-02T11:23:42.165Z,6.32
2023-03-02T11:26:19.356Z,6.32
2023-03-02T11:28:52.653Z,6.46
2023-03-02T11:31:29.687Z,6.48
2023-03-02T11:34:17.896Z,6.61
2023-03-02T11:36:58.623Z,6.76
2023-03-02T11:39:33.184Z,6.86
2023-03-02T11:42:01.045Z,6.97
2023-03-02T11:44:29.832Z,7.10
2023-03-02T11:47:01.990Z,7.24
2023-03-02T11:49:40.715Z,7.23
2023-03-02T11:52:19.908Z,7.31
2023-03-02T11:54:53.951Z,7.25
2023-03-02T11:57:26.685Z,7.23
2023-03-02T11:59:56.098Z,7.32
2023-03-02T12:02:24.177Z,7.45
2023-03-02T12:05:03.064Z,7.47
2023-03-02T12:07:32.474Z,7.53
2023-03-02T12:10:03.220Z,7.59
2023-03-02T12:12:36.226Z,7.56
2023-03-02T12:15:04.515Z,7.70
2023-03-02T12:17:35.148Z,7.70
2023-03-02T12:20:24.455Z,7.75
2023-03-02T12:22:54.389Z,7.83
2023-03-02T12:25:40.453Z,7.78
2023-03-02T12:28:27.066Z,7.92
2023-03-02T12:31:03.754Z,7.87
2023-03-02T12:33:31.670Z,7.98
2023-03-02T12:36:06.598Z,7.98
2023-03-02T12:38:39.569Z,7.97
2023-03-02T12:41:27.527Z,7.83
2023-03-02T12:44:28.745Z,7.98
2023-03-02T12:46:57.485Z,8.04
2023-03-02T12:49:45.638Z,8.02
2023-03-02T12:52:24.160Z,8.08
2023-03-02T12:55:02.704Z,8.10
2023-03-02T12:57:31.066Z,8.16
2023-03-02T13:00:01.061Z,8.20
2023-03-02T13:02:30.699Z,8.27
2023-03-02T13:05:00.598Z,8.33
2023-03-02T13:07:35.487Z,8.37
2023-03-02T13:10:10.731Z,8.38
2023-03-02T13:12:45.150Z,8.46
2023-03-02T13:15:17.048Z,8.50
2023-03-02T13:17:45.455Z,8.51
2023-03-02T13:20:15.861Z,8.53
2023-03-02T13:22:43.840Z,8.41
2023-03-02T13:25:23.682Z,8.47
2023-03-02T13:27:56.005Z,8.47
2023-03-02T13:30:27.243Z,8.50
2023-03-02T13:33:01.022Z,8.45
2023-03-02T13:35:31.442Z,8.33
2023-03-02T13:38:03.090Z,8.18
2023-03-02T13:40:44.827Z,8.22
2023-03-02T13:43:32.274Z,8.22
2023-03-02T13:46:01.612Z,8.27
2023-03-02T13:48:30.585Z,8.34
2023-03-02T13:51:00.454Z,8.40
2023-03-02T13:53:31.053Z,8.41
2023-03-02T13:56:01.274Z,8.29
2023-03-02T13:58:30.372Z,8.17
2023-03-02T14:00:58.408Z,8.24
2023-03-02T14:03:28.259Z,8.11
2023-03-02T14:05:57.699Z,8.18
2023-03-02T14:08:25.568Z,8.17
2023-03-02T14:10:57.236Z,8.29
2023-03-02T14:13:31.499Z,8.31
2023-03-02T14:15:59.415Z,8.21
2023-03-02T14:18:37.125Z,8.23
2023-03-02T14:21:05.778Z,8.30
2023-03-02T14:23:33.784Z,8.23
2023-03-02T14:26:01.703Z,8.13
2023-03-02T14:28:35.292Z,8.17
2023-03-02T14:31:03.168Z,8.17
2023-03-02T14:33:31.020Z,8.04
2023-03-02T14:35:59.725Z,7.94
2023-03-02T14:38:28.822Z,7.95
2023-03-02T14:40:56.671Z,7.78
2023-03-02T14:43:25.282Z,7.79
2023-03-02T14:45:54.580Z,7.63
2023-03-02T14:48:22.502Z,7.58
2023-03-02T14:50:52.449Z,7.48
2023-03-02T14:53:27.369Z,7.32
2023-03-02T14:55:55.197Z,7.37
2023-03-02T14:58:30.649Z,7.27
2023-03-02T15:00:59.790Z,7.19
2023-03-02T15:03:28.175Z,7.05
2023-03-02T15:06:01.420Z,7.06
2023-03-02T15:08:29.992Z,7.03
2023-03-02T15:10:58.100Z,7.13
2023-03-02T15:13:25.841Z,7.10
2023-03-02T15:15:53.704Z,6.99
2023-03-02T15:18:22.859Z,6.99
2023-03-02T15:20:50.565Z,6.89
2023-03-02T15:23:18.280Z,6.92
2023-03-02T15:25:46.042Z,6.88
2023-03-02T15:28:13.849Z,6.81
2023-03-02T15:30:41.745Z,6.81
2023-03-02T15:33:09.544Z,6.81
2023-03-02T15:35:39.660Z,6.74
2023-03-02T15:38:07.858Z,6.82
2023-03-02T15:40:37.089Z,6.74
2023-03-02T15:43:05.007Z,6.73
2023-03-02T15:45:32.789Z,6.66
2023-03-02T15:48:00.629Z,6.64
2023-03-02T15:50:28.399Z,6.48
2023-03-02T15:52:58.405Z,6.56
2023-03-02T15:55:27.112Z,6.39
2023-03-02T15:57:58.016Z,6.41
2023-03-02T16:00:26.173Z,6.37
2023-03-02T16:02:54.025Z,6.37
2023-03-02T16:05:21.868Z,6.36
2023-03-02T16:07:49.638Z,6.24
2023-03-02T16:10:20.740Z,6.25
2023-03-02T16:12:48.477Z,6.22
2023-03-02T16:15:16.241Z,6.19
2023-03-02T16:17:44.116Z,6.20
2023-03-02T16:20:13.139Z,6.20
2023-03-02T16:22:40.859Z,6.15
2023-03-02T16:25:09.250Z,5.90
2023-03-02T16:27:38.447Z,5.87
2023-03-02T16:30:07.112Z,5.70
2023-03-02T16:32:34.944Z,5.87
2023-03-02T16:35:02.653Z,5.81
2023-03-02T16:37:30.470Z,5.81
2023-03-02T16:39:58.262Z,5.73
2023-03-02T16:42:26.314Z,5.76
2023-03-02T16:44:55.459Z,5.75
2023-03-02T16:47:23.230Z,5.75
2023-03-02T16:49:51.066Z,5.67
2023-03-02T16:52:18.829Z,5.70
2023-03-02T16:54:46.646Z,5.60
2023-03-02T16:57:14.387Z,5.65
2023-03-02T16:59:42.347Z,5.58
2023-03-02T17:02:12.611Z,5.58
2023-03-02T17:04:40.609Z,5.60
2023-03-02T17:07:09.404Z,5.42
2023-03-02T17:09:41.370Z,5.53
2023-03-02T17:12:09.388Z,5.44
2023-03-02T17:14:37.155Z,5.40
2023-03-02T17:17:04.999Z,5.43
2023-03-02T17:19:34.228Z,5.38
2023-03-02T17:22:03.212Z,5.34
2023-03-02T17:24:31.522Z,5.29
2023-03-02T17:26:59.250Z,5.28
2023-03-02T17:29:27.076Z,5.26
2023-03-02T17:31:54.984Z,5.21
2023-03-02T17:34:23.007Z,5.17
2023-03-02T17:36:52.111Z,5.14
2023-03-02T17:39:19.870Z,5.08
2023-03-02T17:41:50.145Z,5.01
2023-03-02T17:44:17.891Z,5.01
2023-03-02T17:46:46.559Z,4.99
2023-03-02T17:49:14.660Z,4.89
2023-03-02T17:51:42.421Z,4.88
2023-03-02T17:54:12.776Z,4.89
2023-03-02T17:56:40.580Z,4.89
2023-03-02T17:59:08.380Z,4.85
2023-03-02T18:01:36.453Z,4.81
2023-03-02T18:04:04.911Z,4.75
2023-03-02T18:06:32.931Z,4.70
2023-03-02T18:09:00.785Z,4.70
2023-03-02T18:11:30.103Z,4.64
2023-03-02T18:13:59.148Z,4.59
2023-03-02T18:16:29.209Z,4.53
2023-03-02T18:18:57.580Z,4.54
2023-03-02T18:21:25.377Z,4.56
2023-03-02T18:23:53.560Z,4.57
2023-03-02T18:26:22.006Z,4.52
2023-03-02T18:28:51.447Z,4.47
2023-03-02T18:31:20.201Z,4.45
2023-03-02T18:33:48.626Z,4.44
2023-03-02T18:36:16.811Z,4.40
2023-03-02T18:38:44.659Z,4.38
2023-03-02T18:41:13.834Z,4.38
2023-03-02T18:43:43.211Z,4.27
2023-03-02T18:46:19.206Z,4.26
2023-03-02T18:48:47.460Z,4.25
2023-03-02T18:51:17.110Z,4.30
2023-03-02T18:53:46.082Z,4.28
2023-03-02T18:56:14.189Z,4.14
2023-03-02T18:58:42.413Z,4.09
2023-03-02T19:01:10.443Z,4.06
2023-03-02T19:03:41.928Z,4.07
2023-03-02T19:06:10.071Z,4.01
2023-03-02T19:08:38.079Z,4.02
2023-03-02T19:11:06.598Z,4.01
2023-03-02T19:13:34.415Z,4.03
2023-03-02T19:16:02.957Z,4.01
2023-03-02T19:18:34.367Z,3.93
2023-03-02T19:21:04.943Z,3.86
2023-03-02T19:23:33.184Z,3.82
2023-03-02T19:26:01.030Z,3.81
2023-03-02T19:28:28.826Z,3.80
2023-03-02T19:30:56.579Z,3.76
2023-03-02T19:33:24.904Z,3.69
2023-03-02T19:35:52.784Z,3.65
2023-03-02T19:38:22.730Z,3.65
2023-03-02T19:40:52.118Z,3.64
2023-03-02T19:43:20.372Z,3.59
2023-03-02T19:45:48.240Z,3.58
2023-03-02T19:48:16.200Z,3.56
2023-03-02T19:50:45.386Z,3.53
2023-03-02T19:53:13.562Z,3.49
2023-03-02T19:55:43.571Z,3.46
2023-03-02T19:58:17.270Z,3.42
2023-03-02T20:00:45.794Z,3.39
2023-03-02T20:03:14.078Z,3.45
2023-03-02T20:05:41.802Z,3.44
2023-03-02T20:08:09.849Z,3.32
2023-03-02T20:10:40.657Z,3.29
2023-03-02T20:13:10.669Z,3.25
2023-03-02T20:15:40.412Z,3.20
2023-03-02T20:18:10.918Z,3.17
2023-03-02T20:20:38.721Z,3.15
2023-03-02T20:23:06.872Z,3.10
2023-03-02T20:25:36.461Z,3.08
2023-03-02T20:28:05.808Z,3.05
2023-03-02T20:30:38.603Z,3.06
2023-03-02T20:33:08.400Z,3.03
2023-03-02T20:35:40.898Z,3.03
2023-03-02T20:38:11.206Z,3.01
2023-03-02T20:40:39.047Z,2.96
2023-03-02T20:43:07.247Z,2.91
2023-03-02T20:45:40.869Z,2.87
2023-03-02T20:48:09.298Z,2.87
2023-03-02T20:50:40.476Z,2.86
2023-03-02T20:53:11.567Z,2.87
2023-03-02T20:55:39.781Z,2.82
2023-03-02T20:58:07.637Z,2.82
2023-03-02T21:00:38.157Z,2.77
2023-03-02T21:03:07.233Z,2.76
2023-03-02T21:05:37.150Z,2.69
2023-03-02T21:08:05.851Z,2.70
2023-03-02T21:10:37.982Z,2.69
2023-03-02T21:13:07.629Z,2.71
2023-03-02T21:15:37.409Z,2.73
2023-03-02T21:18:05.649Z,2.69
2023-03-02T21:20:38.154Z,2.68
2023-03-02T21:23:05.967Z,2.66
2023-03-02T21:25:34.496Z,2.62
2023-03-02T21:28:02.298Z,2.60
2023-03-02T21:30:34.066Z,2.60
2023-03-02T21:33:03.704Z,2.57
2023-03-02T21:35:34.296Z,2.55
2023-03-02T21:38:05.044Z,2.52
2023-03-02T21:40:37.582Z,2.52
2023-03-02T21:43:06.812Z,2.47
2023-03-02T21:45:35.913Z,2.36
2023-03-02T21:48:05.546Z,2.35
2023-03-02T21:50:36.681Z,2.32
2023-03-02T21:53:05.257Z,2.29
2023-03-02T21:55:33.620Z,2.27
2023-03-02T21:58:01.944Z,2.24
2023-03-02T22:00:32.660Z,2.23
2023-03-02T22:03:01.170Z,2.17
2023-03-02T22:05:30.525Z,2.17
2023-03-02T22:07:58.612Z,2.15
2023-03-02T22:10:31.859Z,2.10
2023-03-02T22:13:15.632Z,2.08
2023-03-02T22:15:43.401Z,2.08
2023-03-02T22:18:12.980Z,2.06
2023-03-02T22:20:45.092Z,2.05
2023-03-02T22:23:14.523Z,2.05
2023-03-02T22:25:44.289Z,2.05
2023-03-02T22:28:17.967Z,2.01
2023-03-02T22:30:46.381Z,2.00
2023-03-02T22:33:19.883Z,1.97
2023-03-02T22:35:49.680Z,1.93
2023-03-02T22:38:25.281Z,1.87
2023-03-02T22:40:53.865Z,1.82
2023-03-02T22:43:25.951Z,1.79
2023-03-02T22:45:54.266Z,1.71
2023-03-02T22:48:25.559Z,1.73
2023-03-02T22:50:55.042Z,1.72
2023-03-02T22:53:30.045Z,1.72
2023-03-02T22:56:00.437Z,1.72
2023-03-02T22:58:46.039Z,1.70
2023-03-02T23:01:23.071Z,1.69
2023-03-02T23:03:53.272Z,1.70
2023-03-02T23:06:30.778Z,1.61
2023-03-02T23:09:00.393Z,1.58
2023-03-02T23:11:29.635Z,1.56
2023-03-02T23:13:57.489Z,1.52
2023-03-02T23:16:27.110Z,1.50
2023-03-02T23:18:57.132Z,1.52
2023-03-02T23:21:28.972Z,1.54
2023-03-02T23:23:56.821Z,1.52
2023-03-02T23:26:24.624Z,1.51
2023-03-02T23:28:52.564Z,1.50
2023-03-02T23:31:21.234Z,1.49
2023-03-02T23:33:49.412Z,1.47
2023-03-02T23:36:17.701Z,1.47
2023-03-02T23:38:46.826Z,1.42
2023-03-02T23:41:15.078Z,1.40
2023-03-02T23:43:42.869Z,1.38
2023-03-02T23:46:13.999Z,1.35
2023-03-02T23:48:41.960Z,1.32
2023-03-02T23:51:09.782Z,1.30
2023-03-02T23:53:37.624Z,1.27
2023-03-02T23:56:07.842Z,1.25
2023-03-02T23:58:35.585Z,1.21
